sensor_id;sensor_type;location;lat;lon;timestamp;temperature;humidity
33943;DHT22;66763;47.856;17.462;2024-02-26T00:00:07;11.70;54.00
33943;DHT22;66763;47.856;17.462;2024-02-26T00:02:37;11.60;53.90
33943;DHT22;66763;47.856;17.462;2024-02-26T00:05:07;11.70;53.90
33943;DHT22;66763;47.856;17.462;2024-02-26T00:07:32;11.70;54.00
33943;DHT22;66763;47.856;17.462;2024-02-26T00:09:58;11.70;54.00
33943;DHT22;66763;47.856;17.462;2024-02-26T00:12:23;11.70;54.00
33943;DHT22;66763;47.856;17.462;2024-02-26T00:14:49;11.70;54.00
33943;DHT22;66763;47.856;17.462;2024-02-26T00:17:15;11.70;54.00
33943;DHT22;66763;47.856;17.462;2024-02-26T00:19:41;11.70;54.00
33943;DHT22;66763;47.856;17.462;2024-02-26T00:22:06;11.70;54.00
33943;DHT22;66763;47.856;17.462;2024-02-26T00:24:32;11.70;53.90
33943;DHT22;66763;47.856;17.462;2024-02-26T00:26:58;11.70;53.90
33943;DHT22;66763;47.856;17.462;2024-02-26T00:29:24;11.70;54.00
33943;DHT22;66763;47.856;17.462;2024-02-26T00:31:51;11.70;54.00
33943;DHT22;66763;47.856;17.462;2024-02-26T00:34:16;11.70;54.00
33943;DHT22;66763;47.856;17.462;2024-02-26T00:36:42;11.70;54.00
33943;DHT22;66763;47.856;17.462;2024-02-26T00:39:07;11.70;54.00
33943;DHT22;66763;47.856;17.462;2024-02-26T00:41:33;11.70;54.00
33943;DHT22;66763;47.856;17.462;2024-02-26T00:43:58;11.70;54.00
33943;DHT22;66763;47.856;17.462;2024-02-26T00:46:24;11.70;53.90
33943;DHT22;66763;47.856;17.462;2024-02-26T00:48:50;11.70;53.90
33943;DHT22;66763;47.856;17.462;2024-02-26T00:51:15;11.70;54.50
33943;DHT22;66763;47.856;17.462;2024-02-26T00:53:41;11.70;53.90
33943;DHT22;66763;47.856;17.462;2024-02-26T00:56:06;11.70;53.90
33943;DHT22;66763;47.856;17.462;2024-02-26T00:58:32;11.70;53.90
33943;DHT22;66763;47.856;17.462;2024-02-26T01:00:57;11.60;53.90
33943;DHT22;66763;47.856;17.462;2024-02-26T01:03:23;11.70;53.90
33943;DHT22;66763;47.856;17.462;2024-02-26T01:05:48;11.70;53.90
33943;DHT22;66763;47.856;17.462;2024-02-26T01:08:14;11.70;53.90
33943;DHT22;66763;47.856;17.462;2024-02-26T01:10:39;11.70;53.90
33943;DHT22;66763;47.856;17.462;2024-02-26T01:13:05;11.70;53.90
33943;DHT22;66763;47.856;17.462;2024-02-26T01:15:30;11.70;54.00
33943;DHT22;66763;47.856;17.462;2024-02-26T01:17:56;11.70;53.90
33943;DHT22;66763;47.856;17.462;2024-02-26T01:20:21;11.70;54.00
33943;DHT22;66763;47.856;17.462;2024-02-26T01:22:47;11.60;53.90
33943;DHT22;66763;47.856;17.462;2024-02-26T01:25:12;11.70;53.90
33943;DHT22;66763;47.856;17.462;2024-02-26T01:27:38;11.60;53.90
33943;DHT22;66763;47.856;17.462;2024-02-26T01:30:04;11.70;53.90
33943;DHT22;66763;47.856;17.462;2024-02-26T01:32:30;11.70;53.90
33943;DHT22;66763;47.856;17.462;2024-02-26T01:34:56;11.70;54.00
33943;DHT22;66763;47.856;17.462;2024-02-26T01:37:21;11.70;53.90
33943;DHT22;66763;47.856;17.462;2024-02-26T01:39:47;11.70;53.90
33943;DHT22;66763;47.856;17.462;2024-02-26T01:42:12;11.60;53.90
33943;DHT22;66763;47.856;17.462;2024-02-26T01:44:38;11.70;53.90
33943;DHT22;66763;47.856;17.462;2024-02-26T01:47:03;11.70;53.90
33943;DHT22;66763;47.856;17.462;2024-02-26T01:49:29;11.60;53.90
33943;DHT22;66763;47.856;17.462;2024-02-26T01:51:55;11.70;53.90
33943;DHT22;66763;47.856;17.462;2024-02-26T01:54:21;11.60;53.90
33943;DHT22;66763;47.856;17.462;2024-02-26T01:56:46;11.60;53.90
33943;DHT22;66763;47.856;17.462;2024-02-26T01:59:12;11.70;53.90
33943;DHT22;66763;47.856;17.462;2024-02-26T02:01:38;11.70;53.90
33943;DHT22;66763;47.856;17.462;2024-02-26T02:04:07;11.60;53.90
33943;DHT22;66763;47.856;17.462;2024-02-26T02:06:33;11.60;53.90
33943;DHT22;66763;47.856;17.462;2024-02-26T02:08:58;11.70;53.90
33943;DHT22;66763;47.856;17.462;2024-02-26T02:11:25;11.70;54.00
33943;DHT22;66763;47.856;17.462;2024-02-26T02:13:51;11.60;53.90
33943;DHT22;66763;47.856;17.462;2024-02-26T02:16:16;11.60;53.90
33943;DHT22;66763;47.856;17.462;2024-02-26T02:18:42;11.70;53.90
33943;DHT22;66763;47.856;17.462;2024-02-26T02:21:07;11.60;53.90
33943;DHT22;66763;47.856;17.462;2024-02-26T02:23:33;11.60;53.90
33943;DHT22;66763;47.856;17.462;2024-02-26T02:25:58;11.60;53.90
33943;DHT22;66763;47.856;17.462;2024-02-26T02:28:25;11.60;53.90
33943;DHT22;66763;47.856;17.462;2024-02-26T02:30:50;11.60;53.90
33943;DHT22;66763;47.856;17.462;2024-02-26T02:33:16;11.60;53.90
33943;DHT22;66763;47.856;17.462;2024-02-26T02:35:42;11.60;53.90
33943;DHT22;66763;47.856;17.462;2024-02-26T02:38:07;11.60;53.90
33943;DHT22;66763;47.856;17.462;2024-02-26T02:40:33;11.70;54.00
33943;DHT22;66763;47.856;17.462;2024-02-26T02:42:58;11.60;53.90
33943;DHT22;66763;47.856;17.462;2024-02-26T02:45:25;11.60;53.90
33943;DHT22;66763;47.856;17.462;2024-02-26T02:47:50;11.60;53.90
33943;DHT22;66763;47.856;17.462;2024-02-26T02:50:16;11.60;53.90
33943;DHT22;66763;47.856;17.462;2024-02-26T02:52:41;11.60;53.90
33943;DHT22;66763;47.856;17.462;2024-02-26T02:55:07;11.60;53.90
33943;DHT22;66763;47.856;17.462;2024-02-26T02:57:33;11.60;53.80
33943;DHT22;66763;47.856;17.462;2024-02-26T02:59:58;11.60;53.90
33943;DHT22;66763;47.856;17.462;2024-02-26T03:02:24;11.60;53.90
33943;DHT22;66763;47.856;17.462;2024-02-26T03:04:52;11.60;53.90
33943;DHT22;66763;47.856;17.462;2024-02-26T03:07:18;11.60;53.90
33943;DHT22;66763;47.856;17.462;2024-02-26T03:09:43;11.60;53.90
33943;DHT22;66763;47.856;17.462;2024-02-26T03:12:09;11.60;53.90
33943;DHT22;66763;47.856;17.462;2024-02-26T03:14:34;11.60;53.90
33943;DHT22;66763;47.856;17.462;2024-02-26T03:17:00;11.60;53.90
33943;DHT22;66763;47.856;17.462;2024-02-26T03:19:25;11.60;53.90
33943;DHT22;66763;47.856;17.462;2024-02-26T03:21:51;11.60;53.90
33943;DHT22;66763;47.856;17.462;2024-02-26T03:24:16;11.60;53.80
33943;DHT22;66763;47.856;17.462;2024-02-26T03:26:42;11.60;53.90
33943;DHT22;66763;47.856;17.462;2024-02-26T03:29:08;11.60;53.90
33943;DHT22;66763;47.856;17.462;2024-02-26T03:31:33;11.60;53.90
33943;DHT22;66763;47.856;17.462;2024-02-26T03:33:59;11.60;53.90
33943;DHT22;66763;47.856;17.462;2024-02-26T03:36:24;11.60;53.90
33943;DHT22;66763;47.856;17.462;2024-02-26T03:38:50;11.60;53.90
33943;DHT22;66763;47.856;17.462;2024-02-26T03:41:15;11.60;53.90
33943;DHT22;66763;47.856;17.462;2024-02-26T03:43:41;11.60;53.90
33943;DHT22;66763;47.856;17.462;2024-02-26T03:46:09;11.60;53.90
33943;DHT22;66763;47.856;17.462;2024-02-26T03:48:36;11.60;53.90
33943;DHT22;66763;47.856;17.462;2024-02-26T03:51:02;11.60;53.90
33943;DHT22;66763;47.856;17.462;2024-02-26T03:53:27;11.60;53.90
33943;DHT22;66763;47.856;17.462;2024-02-26T03:55:53;11.60;53.90
33943;DHT22;66763;47.856;17.462;2024-02-26T03:58:20;11.60;53.90
33943;DHT22;66763;47.856;17.462;2024-02-26T04:00:46;11.60;53.90
33943;DHT22;66763;47.856;17.462;2024-02-26T04:03:13;11.60;53.90
33943;DHT22;66763;47.856;17.462;2024-02-26T04:05:38;11.60;53.90
33943;DHT22;66763;47.856;17.462;2024-02-26T04:08:04;11.60;53.90
33943;DHT22;66763;47.856;17.462;2024-02-26T04:10:30;11.60;53.90
33943;DHT22;66763;47.856;17.462;2024-02-26T04:12:55;11.60;53.90
33943;DHT22;66763;47.856;17.462;2024-02-26T04:15:20;11.60;53.90
33943;DHT22;66763;47.856;17.462;2024-02-26T04:17:46;11.60;53.90
33943;DHT22;66763;47.856;17.462;2024-02-26T04:20:13;11.60;53.90
33943;DHT22;66763;47.856;17.462;2024-02-26T04:22:38;11.60;53.90
33943;DHT22;66763;47.856;17.462;2024-02-26T04:25:04;11.60;54.10
33943;DHT22;66763;47.856;17.462;2024-02-26T04:27:30;11.60;54.00
33943;DHT22;66763;47.856;17.462;2024-02-26T04:29:55;11.60;53.90
33943;DHT22;66763;47.856;17.462;2024-02-26T04:32:20;11.60;53.90
33943;DHT22;66763;47.856;17.462;2024-02-26T04:34:46;11.60;53.90
33943;DHT22;66763;47.856;17.462;2024-02-26T04:37:11;11.60;54.00
33943;DHT22;66763;47.856;17.462;2024-02-26T04:39:37;11.60;53.90
33943;DHT22;66763;47.856;17.462;2024-02-26T04:42:02;11.60;53.90
33943;DHT22;66763;47.856;17.462;2024-02-26T04:44:29;11.60;53.90
33943;DHT22;66763;47.856;17.462;2024-02-26T04:46:54;11.60;54.00
33943;DHT22;66763;47.856;17.462;2024-02-26T04:49:20;11.60;53.90
33943;DHT22;66763;47.856;17.462;2024-02-26T04:51:45;11.60;53.90
33943;DHT22;66763;47.856;17.462;2024-02-26T04:54:13;11.60;54.00
33943;DHT22;66763;47.856;17.462;2024-02-26T04:56:38;11.60;54.00
33943;DHT22;66763;47.856;17.462;2024-02-26T04:59:04;11.60;54.00
33943;DHT22;66763;47.856;17.462;2024-02-26T05:01:29;11.60;53.90
33943;DHT22;66763;47.856;17.462;2024-02-26T05:03:55;11.50;53.90
33943;DHT22;66763;47.856;17.462;2024-02-26T05:06:20;11.50;53.90
33943;DHT22;66763;47.856;17.462;2024-02-26T05:08:46;11.50;53.90
33943;DHT22;66763;47.856;17.462;2024-02-26T05:11:11;11.60;54.00
33943;DHT22;66763;47.856;17.462;2024-02-26T05:13:37;11.60;54.00
33943;DHT22;66763;47.856;17.462;2024-02-26T05:16:02;11.60;53.90
33943;DHT22;66763;47.856;17.462;2024-02-26T05:18:28;11.60;53.90
33943;DHT22;66763;47.856;17.462;2024-02-26T05:20:53;11.60;54.00
33943;DHT22;66763;47.856;17.462;2024-02-26T05:23:19;11.50;54.00
33943;DHT22;66763;47.856;17.462;2024-02-26T05:25:44;11.50;53.90
33943;DHT22;66763;47.856;17.462;2024-02-26T05:28:12;11.50;54.00
33943;DHT22;66763;47.856;17.462;2024-02-26T05:30:38;11.50;54.00
33943;DHT22;66763;47.856;17.462;2024-02-26T05:33:05;11.60;54.00
33943;DHT22;66763;47.856;17.462;2024-02-26T05:35:38;11.50;53.90
33943;DHT22;66763;47.856;17.462;2024-02-26T05:38:03;11.50;53.90
33943;DHT22;66763;47.856;17.462;2024-02-26T05:40:29;11.50;54.00
33943;DHT22;66763;47.856;17.462;2024-02-26T05:42:55;11.50;54.00
33943;DHT22;66763;47.856;17.462;2024-02-26T05:45:21;11.50;54.10
33943;DHT22;66763;47.856;17.462;2024-02-26T05:47:47;11.50;54.00
33943;DHT22;66763;47.856;17.462;2024-02-26T05:50:13;11.50;54.00
33943;DHT22;66763;47.856;17.462;2024-02-26T05:52:38;11.50;54.00
33943;DHT22;66763;47.856;17.462;2024-02-26T05:55:04;11.50;54.10
33943;DHT22;66763;47.856;17.462;2024-02-26T05:57:30;11.50;54.00
33943;DHT22;66763;47.856;17.462;2024-02-26T05:59:56;11.60;54.10
33943;DHT22;66763;47.856;17.462;2024-02-26T06:02:21;11.50;54.10
33943;DHT22;66763;47.856;17.462;2024-02-26T06:04:47;11.50;54.10
33943;DHT22;66763;47.856;17.462;2024-02-26T06:07:12;11.50;54.10
33943;DHT22;66763;47.856;17.462;2024-02-26T06:09:38;11.50;54.00
33943;DHT22;66763;47.856;17.462;2024-02-26T06:12:04;11.50;54.00
33943;DHT22;66763;47.856;17.462;2024-02-26T06:14:30;11.50;53.90
33943;DHT22;66763;47.856;17.462;2024-02-26T06:16:56;11.50;54.00
33943;DHT22;66763;47.856;17.462;2024-02-26T06:19:21;11.50;54.00
33943;DHT22;66763;47.856;17.462;2024-02-26T06:21:46;11.50;54.00
33943;DHT22;66763;47.856;17.462;2024-02-26T06:24:12;11.50;54.00
33943;DHT22;66763;47.856;17.462;2024-02-26T06:26:37;11.50;54.00
33943;DHT22;66763;47.856;17.462;2024-02-26T06:29:03;11.50;54.10
33943;DHT22;66763;47.856;17.462;2024-02-26T06:31:28;11.50;54.00
33943;DHT22;66763;47.856;17.462;2024-02-26T06:33:54;11.50;54.00
33943;DHT22;66763;47.856;17.462;2024-02-26T06:36:20;11.50;54.10
33943;DHT22;66763;47.856;17.462;2024-02-26T06:38:46;11.50;54.00
33943;DHT22;66763;47.856;17.462;2024-02-26T06:41:11;11.50;54.00
33943;DHT22;66763;47.856;17.462;2024-02-26T06:43:37;11.50;54.00
33943;DHT22;66763;47.856;17.462;2024-02-26T06:46:02;11.50;54.00
33943;DHT22;66763;47.856;17.462;2024-02-26T06:48:28;11.50;54.00
33943;DHT22;66763;47.856;17.462;2024-02-26T06:50:53;11.50;54.00
33943;DHT22;66763;47.856;17.462;2024-02-26T06:53:19;11.50;54.00
33943;DHT22;66763;47.856;17.462;2024-02-26T06:55:44;11.50;54.00
33943;DHT22;66763;47.856;17.462;2024-02-26T06:58:10;11.50;54.00
33943;DHT22;66763;47.856;17.462;2024-02-26T07:00:36;11.50;54.00
33943;DHT22;66763;47.856;17.462;2024-02-26T07:03:01;11.50;54.00
33943;DHT22;66763;47.856;17.462;2024-02-26T07:05:27;11.50;53.90
33943;DHT22;66763;47.856;17.462;2024-02-26T07:07:53;11.50;53.90
33943;DHT22;66763;47.856;17.462;2024-02-26T07:10:18;11.50;53.90
33943;DHT22;66763;47.856;17.462;2024-02-26T07:12:44;11.50;53.90
33943;DHT22;66763;47.856;17.462;2024-02-26T07:15:09;11.50;54.00
33943;DHT22;66763;47.856;17.462;2024-02-26T07:17:35;11.60;54.10
33943;DHT22;66763;47.856;17.462;2024-02-26T07:20:00;11.50;54.00
33943;DHT22;66763;47.856;17.462;2024-02-26T07:22:26;11.60;54.10
33943;DHT22;66763;47.856;17.462;2024-02-26T07:24:51;11.50;53.90
33943;DHT22;66763;47.856;17.462;2024-02-26T07:27:20;11.50;54.00
33943;DHT22;66763;47.856;17.462;2024-02-26T07:29:46;11.50;53.90
33943;DHT22;66763;47.856;17.462;2024-02-26T07:32:12;11.50;54.00
33943;DHT22;66763;47.856;17.462;2024-02-26T07:34:37;11.50;54.00
33943;DHT22;66763;47.856;17.462;2024-02-26T07:37:07;11.50;54.00
33943;DHT22;66763;47.856;17.462;2024-02-26T07:39:32;11.50;53.90
33943;DHT22;66763;47.856;17.462;2024-02-26T07:41:58;11.50;53.90
33943;DHT22;66763;47.856;17.462;2024-02-26T07:44:23;11.50;53.90
33943;DHT22;66763;47.856;17.462;2024-02-26T07:46:49;11.50;53.90
33943;DHT22;66763;47.856;17.462;2024-02-26T07:49:15;11.50;53.90
33943;DHT22;66763;47.856;17.462;2024-02-26T07:51:40;11.50;53.90
33943;DHT22;66763;47.856;17.462;2024-02-26T07:54:06;11.50;53.80
33943;DHT22;66763;47.856;17.462;2024-02-26T07:56:31;11.50;53.80
33943;DHT22;66763;47.856;17.462;2024-02-26T07:58:56;11.60;53.90
33943;DHT22;66763;47.856;17.462;2024-02-26T08:01:22;11.50;53.80
33943;DHT22;66763;47.856;17.462;2024-02-26T08:03:48;11.50;53.80
33943;DHT22;66763;47.856;17.462;2024-02-26T08:06:13;11.50;53.90
33943;DHT22;66763;47.856;17.462;2024-02-26T08:08:39;11.50;53.80
33943;DHT22;66763;47.856;17.462;2024-02-26T08:11:04;11.50;53.80
33943;DHT22;66763;47.856;17.462;2024-02-26T08:13:30;11.50;53.80
33943;DHT22;66763;47.856;17.462;2024-02-26T08:15:55;11.50;53.80
33943;DHT22;66763;47.856;17.462;2024-02-26T08:18:20;11.60;53.90
33943;DHT22;66763;47.856;17.462;2024-02-26T08:20:46;11.50;53.80
33943;DHT22;66763;47.856;17.462;2024-02-26T08:23:13;11.50;53.80
33943;DHT22;66763;47.856;17.462;2024-02-26T08:25:38;11.50;53.80
33943;DHT22;66763;47.856;17.462;2024-02-26T08:28:04;11.50;53.80
33943;DHT22;66763;47.856;17.462;2024-02-26T08:30:30;11.50;53.80
33943;DHT22;66763;47.856;17.462;2024-02-26T08:32:56;11.50;53.90
33943;DHT22;66763;47.856;17.462;2024-02-26T08:35:21;11.60;54.00
33943;DHT22;66763;47.856;17.462;2024-02-26T08:37:47;11.50;53.90
33943;DHT22;66763;47.856;17.462;2024-02-26T08:40:13;11.50;53.90
33943;DHT22;66763;47.856;17.462;2024-02-26T08:42:39;11.60;54.00
33943;DHT22;66763;47.856;17.462;2024-02-26T08:45:05;11.50;53.90
33943;DHT22;66763;47.856;17.462;2024-02-26T08:47:30;11.50;53.90
33943;DHT22;66763;47.856;17.462;2024-02-26T08:49:56;11.50;53.90
33943;DHT22;66763;47.856;17.462;2024-02-26T08:52:22;11.50;54.00
33943;DHT22;66763;47.856;17.462;2024-02-26T08:54:48;11.50;53.90
33943;DHT22;66763;47.856;17.462;2024-02-26T08:57:13;11.50;54.00
33943;DHT22;66763;47.856;17.462;2024-02-26T08:59:39;11.50;54.00
33943;DHT22;66763;47.856;17.462;2024-02-26T09:02:04;11.50;54.10
33943;DHT22;66763;47.856;17.462;2024-02-26T09:04:30;11.50;54.00
33943;DHT22;66763;47.856;17.462;2024-02-26T09:06:55;11.50;54.60
33943;DHT22;66763;47.856;17.462;2024-02-26T09:09:21;11.60;54.10
33943;DHT22;66763;47.856;17.462;2024-02-26T09:11:47;11.50;54.10
33943;DHT22;66763;47.856;17.462;2024-02-26T09:14:13;11.50;54.10
33943;DHT22;66763;47.856;17.462;2024-02-26T09:16:39;11.50;54.10
33943;DHT22;66763;47.856;17.462;2024-02-26T09:19:04;11.50;54.10
33943;DHT22;66763;47.856;17.462;2024-02-26T09:21:30;11.50;54.10
33943;DHT22;66763;47.856;17.462;2024-02-26T09:23:55;11.50;54.20
33943;DHT22;66763;47.856;17.462;2024-02-26T09:26:21;11.50;54.20
33943;DHT22;66763;47.856;17.462;2024-02-26T09:28:46;11.50;54.20
33943;DHT22;66763;47.856;17.462;2024-02-26T09:31:12;11.50;54.20
33943;DHT22;66763;47.856;17.462;2024-02-26T09:33:37;11.50;54.20
33943;DHT22;66763;47.856;17.462;2024-02-26T09:36:06;11.50;54.20
33943;DHT22;66763;47.856;17.462;2024-02-26T09:38:32;11.60;54.20
33943;DHT22;66763;47.856;17.462;2024-02-26T09:41:02;11.60;54.30
33943;DHT22;66763;47.856;17.462;2024-02-26T09:43:27;11.60;54.20
33943;DHT22;66763;47.856;17.462;2024-02-26T09:45:59;11.50;54.20
33943;DHT22;66763;47.856;17.462;2024-02-26T09:48:24;11.50;54.20
33943;DHT22;66763;47.856;17.462;2024-02-26T09:50:50;11.60;54.30
33943;DHT22;66763;47.856;17.462;2024-02-26T09:53:16;11.60;54.40
33943;DHT22;66763;47.856;17.462;2024-02-26T09:55:42;11.50;54.20
33943;DHT22;66763;47.856;17.462;2024-02-26T09:58:08;11.60;54.30
33943;DHT22;66763;47.856;17.462;2024-02-26T10:00:36;11.50;54.30
33943;DHT22;66763;47.856;17.462;2024-02-26T10:03:03;11.50;54.30
33943;DHT22;66763;47.856;17.462;2024-02-26T10:05:29;11.50;54.80
33943;DHT22;66763;47.856;17.462;2024-02-26T10:07:55;11.60;54.30
33943;DHT22;66763;47.856;17.462;2024-02-26T10:10:22;11.50;54.20
33943;DHT22;66763;47.856;17.462;2024-02-26T10:12:48;11.50;54.20
33943;DHT22;66763;47.856;17.462;2024-02-26T10:15:14;11.60;54.30
33943;DHT22;66763;47.856;17.462;2024-02-26T10:17:40;11.60;54.30
33943;DHT22;66763;47.856;17.462;2024-02-26T10:20:12;11.50;54.30
33943;DHT22;66763;47.856;17.462;2024-02-26T10:22:38;11.50;54.30
33943;DHT22;66763;47.856;17.462;2024-02-26T10:25:04;11.60;54.30
33943;DHT22;66763;47.856;17.462;2024-02-26T10:27:30;11.50;54.30
33943;DHT22;66763;47.856;17.462;2024-02-26T10:29:56;11.50;54.30
33943;DHT22;66763;47.856;17.462;2024-02-26T10:32:22;11.50;54.20
33943;DHT22;66763;47.856;17.462;2024-02-26T10:34:47;11.50;54.30
33943;DHT22;66763;47.856;17.462;2024-02-26T10:37:13;11.60;54.30
33943;DHT22;66763;47.856;17.462;2024-02-26T10:39:39;11.50;54.30
33943;DHT22;66763;47.856;17.462;2024-02-26T10:42:12;11.50;54.30
33943;DHT22;66763;47.856;17.462;2024-02-26T10:44:38;11.60;54.30
33943;DHT22;66763;47.856;17.462;2024-02-26T10:47:05;11.50;54.30
33943;DHT22;66763;47.856;17.462;2024-02-26T10:49:31;11.50;54.30
33943;DHT22;66763;47.856;17.462;2024-02-26T10:51:58;11.50;54.30
33943;DHT22;66763;47.856;17.462;2024-02-26T10:54:25;11.60;54.30
33943;DHT22;66763;47.856;17.462;2024-02-26T10:56:52;11.50;54.30
33943;DHT22;66763;47.856;17.462;2024-02-26T10:59:18;11.60;54.30
33943;DHT22;66763;47.856;17.462;2024-02-26T11:01:46;11.60;54.40
33943;DHT22;66763;47.856;17.462;2024-02-26T11:04:12;11.60;54.30
33943;DHT22;66763;47.856;17.462;2024-02-26T11:06:38;11.50;54.30
33943;DHT22;66763;47.856;17.462;2024-02-26T11:09:04;11.50;54.30
33943;DHT22;66763;47.856;17.462;2024-02-26T11:11:32;11.60;54.40
33943;DHT22;66763;47.856;17.462;2024-02-26T11:13:59;11.60;54.30
33943;DHT22;66763;47.856;17.462;2024-02-26T11:16:26;11.60;54.40
33943;DHT22;66763;47.856;17.462;2024-02-26T11:18:53;11.60;54.30
33943;DHT22;66763;47.856;17.462;2024-02-26T11:21:21;11.60;54.30
33943;DHT22;66763;47.856;17.462;2024-02-26T11:23:56;11.60;54.40
33943;DHT22;66763;47.856;17.462;2024-02-26T11:26:21;11.60;54.30
33943;DHT22;66763;47.856;17.462;2024-02-26T11:28:48;11.60;54.30
33943;DHT22;66763;47.856;17.462;2024-02-26T11:31:14;11.60;54.30
33943;DHT22;66763;47.856;17.462;2024-02-26T11:33:40;11.60;54.30
33943;DHT22;66763;47.856;17.462;2024-02-26T11:36:09;11.50;54.20
33943;DHT22;66763;47.856;17.462;2024-02-26T11:38:35;11.60;54.30
33943;DHT22;66763;47.856;17.462;2024-02-26T11:41:00;11.60;54.30
33943;DHT22;66763;47.856;17.462;2024-02-26T11:46:31;11.60;54.30
33943;DHT22;66763;47.856;17.462;2024-02-26T11:49:01;11.60;54.30
33943;DHT22;66763;47.856;17.462;2024-02-26T11:51:28;11.60;54.30
33943;DHT22;66763;47.856;17.462;2024-02-26T11:53:57;11.50;54.30
33943;DHT22;66763;47.856;17.462;2024-02-26T11:56:24;11.50;54.20
33943;DHT22;66763;47.856;17.462;2024-02-26T11:58:58;11.60;54.30
33943;DHT22;66763;47.856;17.462;2024-02-26T12:06:47;11.60;54.30
33943;DHT22;66763;47.856;17.462;2024-02-26T12:09:13;11.60;54.20
33943;DHT22;66763;47.856;17.462;2024-02-26T12:11:39;11.50;54.20
33943;DHT22;66763;47.856;17.462;2024-02-26T12:14:08;11.50;54.20
33943;DHT22;66763;47.856;17.462;2024-02-26T12:16:37;11.60;54.30
33943;DHT22;66763;47.856;17.462;2024-02-26T12:19:06;11.60;54.20
33943;DHT22;66763;47.856;17.462;2024-02-26T12:21:33;11.50;54.20
33943;DHT22;66763;47.856;17.462;2024-02-26T12:24:15;11.60;54.20
33943;DHT22;66763;47.856;17.462;2024-02-26T12:26:43;11.60;54.20
33943;DHT22;66763;47.856;17.462;2024-02-26T12:29:09;11.50;54.20
33943;DHT22;66763;47.856;17.462;2024-02-26T12:31:36;11.60;54.20
33943;DHT22;66763;47.856;17.462;2024-02-26T12:34:02;11.60;54.20
33943;DHT22;66763;47.856;17.462;2024-02-26T12:36:28;11.60;54.10
33943;DHT22;66763;47.856;17.462;2024-02-26T12:38:53;11.60;54.10
33943;DHT22;66763;47.856;17.462;2024-02-26T12:41:19;11.60;54.10
33943;DHT22;66763;47.856;17.462;2024-02-26T12:43:45;11.60;54.10
33943;DHT22;66763;47.856;17.462;2024-02-26T12:46:11;11.60;54.10
33943;DHT22;66763;47.856;17.462;2024-02-26T12:48:38;11.60;54.10
33943;DHT22;66763;47.856;17.462;2024-02-26T12:51:04;11.60;54.10
33943;DHT22;66763;47.856;17.462;2024-02-26T12:53:31;11.60;54.10
33943;DHT22;66763;47.856;17.462;2024-02-26T12:55:56;11.60;54.10
33943;DHT22;66763;47.856;17.462;2024-02-26T12:58:22;11.60;54.10
33943;DHT22;66763;47.856;17.462;2024-02-26T13:00:51;11.60;54.00
33943;DHT22;66763;47.856;17.462;2024-02-26T13:03:16;11.60;54.10
33943;DHT22;66763;47.856;17.462;2024-02-26T13:05:42;11.60;54.00
33943;DHT22;66763;47.856;17.462;2024-02-26T13:08:08;11.60;54.00
33943;DHT22;66763;47.856;17.462;2024-02-26T13:10:33;11.60;54.00
33943;DHT22;66763;47.856;17.462;2024-02-26T13:13:01;11.60;54.00
33943;DHT22;66763;47.856;17.462;2024-02-26T13:15:27;11.60;54.00
33943;DHT22;66763;47.856;17.462;2024-02-26T13:17:53;11.60;54.00
33943;DHT22;66763;47.856;17.462;2024-02-26T13:20:25;11.60;54.00
33943;DHT22;66763;47.856;17.462;2024-02-26T13:22:50;11.60;53.90
33943;DHT22;66763;47.856;17.462;2024-02-26T13:25:20;11.60;54.00
33943;DHT22;66763;47.856;17.462;2024-02-26T13:27:45;11.60;54.00
33943;DHT22;66763;47.856;17.462;2024-02-26T13:30:11;11.60;53.90
33943;DHT22;66763;47.856;17.462;2024-02-26T13:32:40;11.60;53.90
33943;DHT22;66763;47.856;17.462;2024-02-26T13:35:06;11.70;54.00
33943;DHT22;66763;47.856;17.462;2024-02-26T13:37:33;11.60;53.90
33943;DHT22;66763;47.856;17.462;2024-02-26T13:39:59;11.60;53.90
33943;DHT22;66763;47.856;17.462;2024-02-26T13:42:24;11.60;53.90
33943;DHT22;66763;47.856;17.462;2024-02-26T13:44:49;11.60;53.90
33943;DHT22;66763;47.856;17.462;2024-02-26T13:47:15;11.60;53.90
33943;DHT22;66763;47.856;17.462;2024-02-26T13:49:41;11.60;53.90
33943;DHT22;66763;47.856;17.462;2024-02-26T13:52:06;11.60;53.90
33943;DHT22;66763;47.856;17.462;2024-02-26T13:54:32;11.60;53.90
33943;DHT22;66763;47.856;17.462;2024-02-26T13:56:58;11.70;53.90
33943;DHT22;66763;47.856;17.462;2024-02-26T13:59:24;11.60;53.90
33943;DHT22;66763;47.856;17.462;2024-02-26T14:01:49;11.60;53.90
33943;DHT22;66763;47.856;17.462;2024-02-26T14:04:15;11.60;53.90
33943;DHT22;66763;47.856;17.462;2024-02-26T14:06:42;11.60;53.90
33943;DHT22;66763;47.856;17.462;2024-02-26T14:09:07;11.70;53.90
33943;DHT22;66763;47.856;17.462;2024-02-26T14:11:33;11.60;53.90
33943;DHT22;66763;47.856;17.462;2024-02-26T14:13:59;11.60;53.90
33943;DHT22;66763;47.856;17.462;2024-02-26T14:16:24;11.70;53.90
33943;DHT22;66763;47.856;17.462;2024-02-26T14:18:50;11.60;53.90
33943;DHT22;66763;47.856;17.462;2024-02-26T14:21:15;11.60;53.90
33943;DHT22;66763;47.856;17.462;2024-02-26T14:23:41;11.60;53.90
33943;DHT22;66763;47.856;17.462;2024-02-26T14:26:07;11.70;53.90
33943;DHT22;66763;47.856;17.462;2024-02-26T14:28:33;11.60;53.80
33943;DHT22;66763;47.856;17.462;2024-02-26T14:30:59;11.60;53.90
33943;DHT22;66763;47.856;17.462;2024-02-26T14:33:25;11.60;53.90
33943;DHT22;66763;47.856;17.462;2024-02-26T14:35:50;11.60;53.90
33943;DHT22;66763;47.856;17.462;2024-02-26T14:38:15;11.60;53.90
33943;DHT22;66763;47.856;17.462;2024-02-26T14:40:41;11.60;53.90
33943;DHT22;66763;47.856;17.462;2024-02-26T14:43:07;11.60;53.90
33943;DHT22;66763;47.856;17.462;2024-02-26T14:45:35;11.60;53.90
33943;DHT22;66763;47.856;17.462;2024-02-26T14:48:00;11.60;53.80
33943;DHT22;66763;47.856;17.462;2024-02-26T14:50:26;11.60;53.90
33943;DHT22;66763;47.856;17.462;2024-02-26T14:52:51;11.60;53.90
33943;DHT22;66763;47.856;17.462;2024-02-26T14:55:17;11.60;53.80
33943;DHT22;66763;47.856;17.462;2024-02-26T14:57:42;11.60;53.90
33943;DHT22;66763;47.856;17.462;2024-02-26T15:00:08;11.60;53.80
33943;DHT22;66763;47.856;17.462;2024-02-26T15:02:35;11.60;53.80
33943;DHT22;66763;47.856;17.462;2024-02-26T15:05:00;11.60;53.80
33943;DHT22;66763;47.856;17.462;2024-02-26T15:07:26;11.60;53.80
33943;DHT22;66763;47.856;17.462;2024-02-26T15:09:51;11.60;53.80
33943;DHT22;66763;47.856;17.462;2024-02-26T15:12:21;11.60;53.90
33943;DHT22;66763;47.856;17.462;2024-02-26T15:14:47;11.60;53.80